sensor_id;sensor_type;location;lat;lon;timestamp;pressure;altitude;pressure_sealevel;temperature;humidity
11808;BME280;5961;42.640;23.380;2023-07-20T00:00:18;93796.69;;;25.76;55.46
11808;BME280;5961;42.640;23.380;2023-07-20T00:02:45;93802.56;;;25.75;56.01
11808;BME280;5961;42.640;23.380;2023-07-20T00:05:12;93803.22;;;25.79;56.08
11808;BME280;5961;42.640;23.380;2023-07-20T00:07:38;93807.38;;;25.83;57.95
11808;BME280;5961;42.640;23.380;2023-07-20T00:10:06;93809.53;;;25.88;59.88
11808;BME280;5961;42.640;23.380;2023-07-20T00:12:34;93805.06;;;25.82;60.74
11808;BME280;5961;42.640;23.380;2023-07-20T00:15:01;93800.69;;;25.59;61.78
11808;BME280;5961;42.640;23.380;2023-07-20T00:17:28;93806.66;;;25.54;61.48
11808;BME280;5961;42.640;23.380;2023-07-20T00:19:54;93799.50;;;25.31;62.91
11808;BME280;5961;42.640;23.380;2023-07-20T00:22:21;93798.19;;;25.23;63.97
11808;BME280;5961;42.640;23.380;2023-07-20T00:24:48;93791.78;;;25.01;66.13
11808;BME280;5961;42.640;23.380;2023-07-20T00:27:15;93784.44;;;24.85;66.50
11808;BME280;5961;42.640;23.380;2023-07-20T00:29:43;93789.28;;;24.78;65.51
11808;BME280;5961;42.640;23.380;2023-07-20T00:32:09;93786.09;;;24.50;65.85
11808;BME280;5961;42.640;23.380;2023-07-20T00:34:36;93774.91;;;24.32;66.77
11808;BME280;5961;42.640;23.380;2023-07-20T00:37:03;93778.88;;;24.28;66.36
11808;BME280;5961;42.640;23.380;2023-07-20T00:39:30;93786.34;;;24.24;65.60
11808;BME280;5961;42.640;23.380;2023-07-20T00:41:56;93780.97;;;24.04;66.07
11808;BME280;5961;42.640;23.380;2023-07-20T00:44:23;93778.59;;;24.06;66.49
11808;BME280;5961;42.640;23.380;2023-07-20T00:46:51;93783.94;;;24.10;65.14
11808;BME280;5961;42.640;23.380;2023-07-20T00:49:18;93772.09;;;24.20;65.06
11808;BME280;5961;42.640;23.380;2023-07-20T00:51:47;93776.59;;;24.26;65.47
11808;BME280;5961;42.640;23.380;2023-07-20T00:54:15;93770.03;;;24.40;65.51
11808;BME280;5961;42.640;23.380;2023-07-20T00:56:42;93762.81;;;24.49;65.32
11808;BME280;5961;42.640;23.380;2023-07-20T00:59:09;93767.88;;;24.64;65.00
11808;BME280;5961;42.640;23.380;2023-07-20T01:01:36;93762.28;;;24.71;65.02
11808;BME280;5961;42.640;23.380;2023-07-20T01:04:04;93755.84;;;24.65;64.56
11808;BME280;5961;42.640;23.380;2023-07-20T01:06:38;93761.50;;;24.41;64.86
11808;BME280;5961;42.640;23.380;2023-07-20T01:09:12;93771.50;;;24.44;65.92
11808;BME280;5961;42.640;23.380;2023-07-20T01:11:44;93780.84;;;24.43;67.38
11808;BME280;5961;42.640;23.380;2023-07-20T01:14:16;93780.16;;;24.39;69.03
11808;BME280;5961;42.640;23.380;2023-07-20T01:16:43;93780.91;;;24.40;71.27
11808;BME280;5961;42.640;23.380;2023-07-20T01:19:13;93788.97;;;24.43;72.18
11808;BME280;5961;42.640;23.380;2023-07-20T01:21:46;93797.91;;;24.44;72.33
11808;BME280;5961;42.640;23.380;2023-07-20T01:24:42;93787.81;;;24.44;72.40
11808;BME280;5961;42.640;23.380;2023-07-20T01:30:29;93779.81;;;24.53;71.92
11808;BME280;5961;42.640;23.380;2023-07-20T01:33:01;93766.41;;;24.46;71.77
11808;BME280;5961;42.640;23.380;2023-07-20T01:35:29;93776.72;;;24.51;71.59
11808;BME280;5961;42.640;23.380;2023-07-20T01:37:56;93783.09;;;24.45;71.89
11808;BME280;5961;42.640;23.380;2023-07-20T01:40:25;93781.25;;;24.42;71.88
11808;BME280;5961;42.640;23.380;2023-07-20T01:42:52;93790.16;;;24.42;72.35
11808;BME280;5961;42.640;23.380;2023-07-20T01:45:19;93793.22;;;24.44;72.65
11808;BME280;5961;42.640;23.380;2023-07-20T01:47:46;93773.53;;;24.40;72.07
11808;BME280;5961;42.640;23.380;2023-07-20T01:50:14;93775.88;;;24.54;71.59
11808;BME280;5961;42.640;23.380;2023-07-20T01:52:40;93776.13;;;24.60;71.83
11808;BME280;5961;42.640;23.380;2023-07-20T01:55:08;93770.97;;;24.66;70.99
11808;BME280;5961;42.640;23.380;2023-07-20T01:57:35;93772.47;;;24.67;69.75
11808;BME280;5961;42.640;23.380;2023-07-20T02:00:02;93761.50;;;24.41;69.00
11808;BME280;5961;42.640;23.380;2023-07-20T02:02:29;93783.09;;;24.45;69.15
11808;BME280;5961;42.640;23.380;2023-07-20T02:04:56;93747.91;;;24.25;69.64
11808;BME280;5961;42.640;23.380;2023-07-20T02:07:24;93731.53;;;24.13;70.30
11808;BME280;5961;42.640;23.380;2023-07-20T02:09:51;93749.28;;;24.17;70.59
11808;BME280;5961;42.640;23.380;2023-07-20T02:12:18;93744.19;;;24.19;70.83
11808;BME280;5961;42.640;23.380;2023-07-20T02:14:45;93763.69;;;24.30;70.59
11808;BME280;5961;42.640;23.380;2023-07-20T02:17:11;93744.19;;;24.19;70.25
11808;BME280;5961;42.640;23.380;2023-07-20T02:19:40;93759.78;;;24.31;70.02
11808;BME280;5961;42.640;23.380;2023-07-20T02:22:07;93759.09;;;24.27;69.96
11808;BME280;5961;42.640;23.380;2023-07-20T02:24:35;93768.09;;;24.24;70.60
11808;BME280;5961;42.640;23.380;2023-07-20T02:27:02;93758.75;;;24.09;70.81
11808;BME280;5961;42.640;23.380;2023-07-20T02:29:28;93761.06;;;24.11;71.32
11808;BME280;5961;42.640;23.380;2023-07-20T02:31:55;93766.59;;;24.23;70.84
11808;BME280;5961;42.640;23.380;2023-07-20T02:34:22;93766.31;;;24.34;70.64
11808;BME280;5961;42.640;23.380;2023-07-20T02:36:49;93762.22;;;24.42;70.47
11808;BME280;5961;42.640;23.380;2023-07-20T02:39:15;93752.91;;;24.43;70.06
11808;BME280;5961;42.640;23.380;2023-07-20T02:41:44;93758.25;;;24.46;71.09
11808;BME280;5961;42.640;23.380;2023-07-20T02:44:10;93748.91;;;24.47;70.50
11808;BME280;5961;42.640;23.380;2023-07-20T02:46:37;93742.19;;;24.52;70.50
11808;BME280;5961;42.640;23.380;2023-07-20T02:49:04;93749.63;;;24.64;70.82
11808;BME280;5961;42.640;23.380;2023-07-20T02:51:30;93739.00;;;24.70;70.71
11808;BME280;5961;42.640;23.380;2023-07-20T02:53:57;93738.06;;;24.76;69.57
11808;BME280;5961;42.640;23.380;2023-07-20T02:56:24;93725.09;;;24.68;69.03
11808;BME280;5961;42.640;23.380;2023-07-20T02:58:52;93735.78;;;24.75;68.65
11808;BME280;5961;42.640;23.380;2023-07-20T03:01:19;93740.22;;;24.69;68.81
11808;BME280;5961;42.640;23.380;2023-07-20T03:03:45;93746.69;;;24.58;67.86
11808;BME280;5961;42.640;23.380;2023-07-20T03:06:12;93714.53;;;24.41;67.84
11808;BME280;5961;42.640;23.380;2023-07-20T03:08:40;93740.75;;;24.47;68.22
11808;BME280;5961;42.640;23.380;2023-07-20T03:11:10;93741.19;;;24.46;68.88
11808;BME280;5961;42.640;23.380;2023-07-20T03:13:37;93743.13;;;24.45;69.12
11808;BME280;5961;42.640;23.380;2023-07-20T03:16:05;93736.69;;;24.39;69.13
11808;BME280;5961;42.640;23.380;2023-07-20T03:18:36;93735.66;;;24.49;69.66
11808;BME280;5961;42.640;23.380;2023-07-20T03:21:03;93753.50;;;24.50;69.79
11808;BME280;5961;42.640;23.380;2023-07-20T03:23:30;93764.16;;;24.57;69.74
11808;BME280;5961;42.640;23.380;2023-07-20T03:25:56;93767.03;;;24.67;70.20
11808;BME280;5961;42.640;23.380;2023-07-20T03:28:23;93753.81;;;24.69;69.40
11808;BME280;5961;42.640;23.380;2023-07-20T03:30:53;93757.84;;;24.77;69.72
11808;BME280;5961;42.640;23.380;2023-07-20T03:33:21;93767.88;;;24.80;69.44
11808;BME280;5961;42.640;23.380;2023-07-20T03:35:48;93733.09;;;24.58;69.17
11808;BME280;5961;42.640;23.380;2023-07-20T03:38:14;93754.38;;;24.76;69.42
11808;BME280;5961;42.640;23.380;2023-07-20T03:40:49;93752.50;;;24.73;68.87
11808;BME280;5961;42.640;23.380;2023-07-20T03:43:15;93759.81;;;24.76;68.51
11808;BME280;5961;42.640;23.380;2023-07-20T03:45:42;93712.94;;;24.27;68.55
11808;BME280;5961;42.640;23.380;2023-07-20T03:48:09;93720.75;;;24.25;69.00
11808;BME280;5961;42.640;23.380;2023-07-20T03:50:37;93762.81;;;24.66;68.35
11808;BME280;5961;42.640;23.380;2023-07-20T03:53:04;93765.31;;;24.73;68.48
11808;BME280;5961;42.640;23.380;2023-07-20T03:55:31;93769.03;;;24.79;68.25
11808;BME280;5961;42.640;23.380;2023-07-20T03:57:58;93766.09;;;24.89;67.93
11808;BME280;5961;42.640;23.380;2023-07-20T04:00:24;93766.09;;;24.89;68.09
11808;BME280;5961;42.640;23.380;2023-07-20T04:02:51;93768.72;;;24.93;68.46
11808;BME280;5961;42.640;23.380;2023-07-20T04:05:18;93775.16;;;24.99;68.83
11808;BME280;5961;42.640;23.380;2023-07-20T04:07:46;93762.97;;;25.03;68.53
11808;BME280;5961;42.640;23.380;2023-07-20T04:10:13;93772.38;;;25.15;68.47
11808;BME280;5961;42.640;23.380;2023-07-20T04:12:39;93766.41;;;25.20;68.33
11808;BME280;5961;42.640;23.380;2023-07-20T04:15:07;93765.88;;;25.25;67.82
11808;BME280;5961;42.640;23.380;2023-07-20T04:17:34;93763.25;;;25.22;67.80
11808;BME280;5961;42.640;23.380;2023-07-20T04:20:01;93765.88;;;25.25;67.92
11808;BME280;5961;42.640;23.380;2023-07-20T04:22:28;93759.44;;;25.19;66.90
11808;BME280;5961;42.640;23.380;2023-07-20T04:24:56;93752.03;;;25.20;66.88
11808;BME280;5961;42.640;23.380;2023-07-20T04:27:23;93759.75;;;25.21;66.68
11808;BME280;5961;42.640;23.380;2023-07-20T04:29:50;93749.41;;;25.16;67.17
11808;BME280;5961;42.640;23.380;2023-07-20T04:32:16;93756.59;;;25.10;67.27
11808;BME280;5961;42.640;23.380;2023-07-20T04:34:43;93744.03;;;25.00;67.04
11808;BME280;5961;42.640;23.380;2023-07-20T04:37:10;93746.13;;;24.96;67.21
11808;BME280;5961;42.640;23.380;2023-07-20T04:39:36;93755.88;;;24.93;67.76
11808;BME280;5961;42.640;23.380;2023-07-20T04:42:05;93750.00;;;24.95;68.05
11808;BME280;5961;42.640;23.380;2023-07-20T04:44:31;93745.28;;;24.83;68.11
11808;BME280;5961;42.640;23.380;2023-07-20T04:46:58;93742.34;;;24.61;68.50
11808;BME280;5961;42.640;23.380;2023-07-20T04:49:25;93752.53;;;24.57;69.13
11808;BME280;5961;42.640;23.380;2023-07-20T04:51:52;93743.56;;;24.44;69.29
11808;BME280;5961;42.640;23.380;2023-07-20T04:54:18;93742.63;;;24.34;69.64
11808;BME280;5961;42.640;23.380;2023-07-20T04:56:45;93729.50;;;24.17;69.95
11808;BME280;5961;42.640;23.380;2023-07-20T04:59:13;93734.75;;;24.08;70.72
11808;BME280;5961;42.640;23.380;2023-07-20T05:01:40;93742.19;;;24.03;70.92
11808;BME280;5961;42.640;23.380;2023-07-20T05:04:07;93734.56;;;23.98;71.06
11808;BME280;5961;42.640;23.380;2023-07-20T05:06:33;93730.75;;;23.96;71.38
11808;BME280;5961;42.640;23.380;2023-07-20T05:09:00;93731.09;;;23.98;71.24
11808;BME280;5961;42.640;23.380;2023-07-20T05:11:27;93743.47;;;23.99;71.73
11808;BME280;5961;42.640;23.380;2023-07-20T05:13:53;93737.53;;;24.04;71.80
11808;BME280;5961;42.640;23.380;2023-07-20T05:16:21;93745.59;;;24.08;71.48
11808;BME280;5961;42.640;23.380;2023-07-20T05:18:48;93743.94;;;24.14;71.27
11808;BME280;5961;42.640;23.380;2023-07-20T05:21:15;93747.91;;;24.25;71.18
11808;BME280;5961;42.640;23.380;2023-07-20T05:23:41;93743.81;;;24.33;70.04
11808;BME280;5961;42.640;23.380;2023-07-20T05:26:08;93749.78;;;24.44;69.83
11808;BME280;5961;42.640;23.380;2023-07-20T05:28:35;93747.22;;;24.53;69.14
11808;BME280;5961;42.640;23.380;2023-07-20T05:31:02;93743.63;;;24.56;68.99
11808;BME280;5961;42.640;23.380;2023-07-20T05:33:30;93745.13;;;24.74;68.93
11808;BME280;5961;42.640;23.380;2023-07-20T05:35:57;93754.97;;;24.84;68.95
11808;BME280;5961;42.640;23.380;2023-07-20T05:38:24;93742.91;;;24.85;68.80
11808;BME280;5961;42.640;23.380;2023-07-20T05:40:51;93755.91;;;25.06;68.31
11808;BME280;5961;42.640;23.380;2023-07-20T05:43:18;93750.97;;;25.17;66.93
11808;BME280;5961;42.640;23.380;2023-07-20T05:45:45;93760.00;;;25.27;66.11
11808;BME280;5961;42.640;23.380;2023-07-20T05:48:13;93745.28;;;25.24;64.89
11808;BME280;5961;42.640;23.380;2023-07-20T05:50:43;93753.69;;;25.30;64.66
11808;BME280;5961;42.640;23.380;2023-07-20T05:53:10;93779.13;;;25.52;64.23
11808;BME280;5961;42.640;23.380;2023-07-20T05:55:36;93771.53;;;25.59;64.30
11808;BME280;5961;42.640;23.380;2023-07-20T05:58:04;93777.81;;;25.69;64.27
11808;BME280;5961;42.640;23.380;2023-07-20T06:00:31;93781.13;;;25.77;63.39
11808;BME280;5961;42.640;23.380;2023-07-20T06:02:57;93765.66;;;25.74;63.19
11808;BME280;5961;42.640;23.380;2023-07-20T06:05:24;93762.16;;;25.86;62.90
11808;BME280;5961;42.640;23.380;2023-07-20T06:07:52;93760.44;;;25.92;62.97
11808;BME280;5961;42.640;23.380;2023-07-20T06:10:20;93771.75;;;26.03;62.55
11808;BME280;5961;42.640;23.380;2023-07-20T06:12:46;93774.38;;;26.06;62.67
11808;BME280;5961;42.640;23.380;2023-07-20T06:15:26;93769.88;;;26.12;62.09
11808;BME280;5961;42.640;23.380;2023-07-20T06:17:54;93760.00;;;26.18;60.75
11808;BME280;5961;42.640;23.380;2023-07-20T06:20:21;93760.66;;;26.23;60.14
11808;BME280;5961;42.640;23.380;2023-07-20T06:22:48;93749.09;;;26.31;59.72
11808;BME280;5961;42.640;23.380;2023-07-20T06:25:16;93747.00;;;26.35;59.75
11808;BME280;5961;42.640;23.380;2023-07-20T06:27:43;93748.63;;;26.45;59.11
11808;BME280;5961;42.640;23.380;2023-07-20T06:30:10;93744.59;;;26.50;58.48
11808;BME280;5961;42.640;23.380;2023-07-20T06:32:38;93736.84;;;26.48;58.92
11808;BME280;5961;42.640;23.380;2023-07-20T06:35:05;93744.31;;;26.57;59.63
11808;BME280;5961;42.640;23.380;2023-07-20T06:37:33;93747.81;;;26.57;60.00
11808;BME280;5961;42.640;23.380;2023-07-20T06:40:00;93746.16;;;26.60;59.43
11808;BME280;5961;42.640;23.380;2023-07-20T06:42:28;93745.28;;;26.63;58.73
11808;BME280;5961;42.640;23.380;2023-07-20T06:44:56;93748.56;;;26.70;58.11
11808;BME280;5961;42.640;23.380;2023-07-20T06:47:22;93742.22;;;26.73;57.45
11808;BME280;5961;42.640;23.380;2023-07-20T06:49:49;93751.28;;;26.83;57.25
11808;BME280;5961;42.640;23.380;2023-07-20T06:52:16;93752.06;;;26.93;57.14
11808;BME280;5961;42.640;23.380;2023-07-20T06:54:42;93749.69;;;26.95;57.25
11808;BME280;5961;42.640;23.380;2023-07-20T06:57:10;93757.47;;;27.05;57.19
11808;BME280;5961;42.640;23.380;2023-07-20T06:59:38;93741.31;;;27.11;57.06
11808;BME280;5961;42.640;23.380;2023-07-20T07:02:05;93730.66;;;27.04;58.58
11808;BME280;5961;42.640;23.380;2023-07-20T07:04:32;93761.88;;;27.24;59.25
11808;BME280;5961;42.640;23.380;2023-07-20T07:06:59;93719.75;;;27.04;59.13
11808;BME280;5961;42.640;23.380;2023-07-20T07:09:25;93770.19;;;27.43;58.86
11808;BME280;5961;42.640;23.380;2023-07-20T07:11:52;93766.47;;;27.49;60.30
11808;BME280;5961;42.640;23.380;2023-07-20T07:14:20;93771.44;;;27.51;61.37
11808;BME280;5961;42.640;23.380;2023-07-20T07:16:48;93781.47;;;27.54;58.71
11808;BME280;5961;42.640;23.380;2023-07-20T07:19:15;93774.31;;;27.47;57.41
11808;BME280;5961;42.640;23.380;2023-07-20T07:21:41;93802.25;;;27.51;57.59
11808;BME280;5961;42.640;23.380;2023-07-20T07:24:08;93810.69;;;27.44;58.23
11808;BME280;5961;42.640;23.380;2023-07-20T07:26:35;93816.69;;;27.39;59.47
11808;BME280;5961;42.640;23.380;2023-07-20T07:29:02;93818.56;;;27.42;60.28
11808;BME280;5961;42.640;23.380;2023-07-20T07:31:29;93819.72;;;27.41;60.65
11808;BME280;5961;42.640;23.380;2023-07-20T07:33:57;93819.88;;;27.38;60.40
11808;BME280;5961;42.640;23.380;2023-07-20T07:36:24;93824.78;;;27.43;60.04
11808;BME280;5961;42.640;23.380;2023-07-20T07:38:51;93820.09;;;27.43;61.00
11808;BME280;5961;42.640;23.380;2023-07-20T07:41:17;93813.09;;;27.42;60.31
11808;BME280;5961;42.640;23.380;2023-07-20T07:43:44;93808.28;;;27.46;60.62
11808;BME280;5961;42.640;23.380;2023-07-20T07:46:11;93808.91;;;27.50;59.98
11808;BME280;5961;42.640;23.380;2023-07-20T07:48:37;93801.47;;;27.51;58.72
11808;BME280;5961;42.640;23.380;2023-07-20T07:51:06;93815.41;;;27.44;59.44
11808;BME280;5961;42.640;23.380;2023-07-20T07:53:32;93795.00;;;27.57;59.43
11808;BME280;5961;42.640;23.380;2023-07-20T07:56:00;93765.56;;;27.52;58.74
11808;BME280;5961;42.640;23.380;2023-07-20T07:58:28;93759.38;;;27.61;59.36
11808;BME280;5961;42.640;23.380;2023-07-20T08:00:55;93762.56;;;27.59;58.59
11808;BME280;5961;42.640;23.380;2023-07-20T08:03:21;93787.19;;;27.68;58.38
11808;BME280;5961;42.640;23.380;2023-07-20T08:05:49;93770.19;;;27.64;59.18
11808;BME280;5961;42.640;23.380;2023-07-20T08:08:17;93766.09;;;27.69;58.57
11808;BME280;5961;42.640;23.380;2023-07-20T08:10:44;93781.59;;;27.72;57.93
11808;BME280;5961;42.640;23.380;2023-07-20T08:13:10;93788.28;;;27.71;57.87
11808;BME280;5961;42.640;23.380;2023-07-20T08:15:37;93801.63;;;27.78;58.02
11808;BME280;5961;42.640;23.380;2023-07-20T08:18:04;93823.38;;;27.82;58.34
11808;BME280;5961;42.640;23.380;2023-07-20T08:20:31;93817.78;;;27.85;58.78
11808;BME280;5961;42.640;23.380;2023-07-20T08:22:57;93813.19;;;27.82;59.68
11808;BME280;5961;42.640;23.380;2023-07-20T08:25:26;93814.22;;;27.75;59.70
11808;BME280;5961;42.640;23.380;2023-07-20T08:27:53;93826.03;;;27.72;60.11
11808;BME280;5961;42.640;23.380;2023-07-20T08:30:21;93808.50;;;27.39;60.84
11808;BME280;5961;42.640;23.380;2023-07-20T08:32:48;93813.16;;;27.51;61.79
11808;BME280;5961;42.640;23.380;2023-07-20T08:35:15;93804.22;;;27.51;62.29
11808;BME280;5961;42.640;23.380;2023-07-20T08:37:43;93809.19;;;27.43;63.99
11808;BME280;5961;42.640;23.380;2023-07-20T08:40:11;93827.81;;;27.45;64.76
11808;BME280;5961;42.640;23.380;2023-07-20T08:42:40;93849.38;;;27.30;63.41
11808;BME280;5961;42.640;23.380;2023-07-20T08:45:08;93845.69;;;27.24;62.27
11808;BME280;5961;42.640;23.380;2023-07-20T08:47:35;93825.16;;;26.98;59.55
11808;BME280;5961;42.640;23.380;2023-07-20T08:50:05;93830.44;;;26.92;58.59
11808;BME280;5961;42.640;23.380;2023-07-20T08:52:34;93827.34;;;26.90;57.55
11808;BME280;5961;42.640;23.380;2023-07-20T08:55:01;93818.22;;;26.71;57.38
11808;BME280;5961;42.640;23.380;2023-07-20T08:57:31;93791.91;;;26.78;58.06
11808;BME280;5961;42.640;23.380;2023-07-20T09:00:02;93800.47;;;26.80;57.24
11808;BME280;5961;42.640;23.380;2023-07-20T09:02:35;93805.47;;;26.68;57.16
11808;BME280;5961;42.640;23.380;2023-07-20T09:05:05;93785.50;;;26.71;56.75
11808;BME280;5961;42.640;23.380;2023-07-20T09:07:32;93782.78;;;26.71;54.54
11808;BME280;5961;42.640;23.380;2023-07-20T09:09:58;93771.13;;;26.71;54.83
11808;BME280;5961;42.640;23.380;2023-07-20T09:12:31;93811.38;;;26.80;54.91
11808;BME280;5961;42.640;23.380;2023-07-20T09:14:57;93797.75;;;26.80;53.83
11808;BME280;5961;42.640;23.380;2023-07-20T09:17:26;93818.09;;;26.75;54.27
11808;BME280;5961;42.640;23.380;2023-07-20T09:19:53;93777.22;;;26.62;54.06
11808;BME280;5961;42.640;23.380;2023-07-20T09:22:20;93791.41;;;26.83;54.78
11808;BME280;5961;42.640;23.380;2023-07-20T09:24:47;93793.13;;;26.89;54.65
11808;BME280;5961;42.640;23.380;2023-07-20T09:27:13;93810.31;;;26.99;54.91
11808;BME280;5961;42.640;23.380;2023-07-20T09:29:49;93778.22;;;27.03;53.77
11808;BME280;5961;42.640;23.380;2023-07-20T09:32:19;93784.00;;;27.05;53.99
11808;BME280;5961;42.640;23.380;2023-07-20T09:34:49;93789.22;;;27.12;53.81
11808;BME280;5961;42.640;23.380;2023-07-20T09:37:20;93789.22;;;27.12;53.58
11808;BME280;5961;42.640;23.380;2023-07-20T09:39:47;93797.59;;;27.17;51.78
11808;BME280;5961;42.640;23.380;2023-07-20T09:42:14;93746.69;;;27.02;50.88
11808;BME280;5961;42.640;23.380;2023-07-20T09:44:43;93774.31;;;27.25;49.23
11808;BME280;5961;42.640;23.380;2023-07-20T09:47:11;93737.63;;;27.05;49.92
11808;BME280;5961;42.640;23.380;2023-07-20T09:49:39;93770.19;;;27.43;48.37
11808;BME280;5961;42.640;23.380;2023-07-20T09:52:08;93771.44;;;27.51;46.33
11808;BME280;5961;42.640;23.380;2023-07-20T09:54:37;93778.63;;;27.57;46.27
11808;BME280;5961;42.640;23.380;2023-07-20T09:57:07;93784.78;;;27.70;47.46
11808;BME280;5961;42.640;23.380;2023-07-20T09:59:34;93749.44;;;27.76;47.85
11808;BME280;5961;42.640;23.380;2023-07-20T10:02:02;93748.13;;;27.90;48.18
11808;BME280;5961;42.640;23.380;2023-07-20T10:04:34;93728.47;;;28.04;48.70
11808;BME280;5961;42.640;23.380;2023-07-20T10:07:05;93761.00;;;28.11;48.43
11808;BME280;5961;42.640;23.380;2023-07-20T10:09:39;93757.69;;;28.16;45.96
11808;BME280;5961;42.640;23.380;2023-07-20T10:12:07;93741.44;;;28.21;46.62
11808;BME280;5961;42.640;23.380;2023-07-20T10:14:40;93740.09;;;28.26;44.98
11808;BME280;5961;42.640;23.380;2023-07-20T10:17:07;93742.22;;;28.22;41.64
11808;BME280;5961;42.640;23.380;2023-07-20T10:19:42;93741.19;;;28.28;41.88
11808;BME280;5961;42.640;23.380;2023-07-20T10:22:12;93764.69;;;28.35;42.40
11808;BME280;5961;42.640;23.380;2023-07-20T10:24:45;93741.94;;;28.38;43.68
11808;BME280;5961;42.640;23.380;2023-07-20T10:27:12;93742.41;;;28.37;42.94
11808;BME280;5961;42.640;23.380;2023-07-20T10:29:40;93762.91;;;28.50;41.83
11808;BME280;5961;42.640;23.380;2023-07-20T10:32:08;93758.06;;;28.54;42.31
11808;BME280;5961;42.640;23.380;2023-07-20T10:34:35;93760.34;;;28.56;43.16
11808;BME280;5961;42.640;23.380;2023-07-20T10:37:02;93736.47;;;28.47;42.76
11808;BME280;5961;42.640;23.380;2023-07-20T10:39:31;93744.41;;;28.54;42.39
11808;BME280;5961;42.640;23.380;2023-07-20T10:42:07;93748.66;;;28.55;43.08
11808;BME280;5961;42.640;23.380;2023-07-20T10:44:36;93747.28;;;28.60;42.46
11808;BME280;5961;42.640;23.380;2023-07-20T10:47:08;93756.25;;;28.60;43.09
11808;BME280;5961;42.640;23.380;2023-07-20T10:49:59;93738.31;;;28.59;44.32
11808;BME280;5961;42.640;23.380;2023-07-20T10:52:26;93701.31;;;28.67;44.43
11808;BME280;5961;42.640;23.380;2023-07-20T10:54:53;93676.09;;;28.72;44.59
11808;BME280;5961;42.640;23.380;2023-07-20T10:57:28;93686.88;;;28.76;44.61
11808;BME280;5961;42.640;23.380;2023-07-20T11:00:08;93714.50;;;28.87;44.13
11808;BME280;5961;42.640;23.380;2023-07-20T11:02:44;93714.38;;;28.91;44.08
11808;BME280;5961;42.640;23.380;2023-07-20T11:05:35;93699.16;;;28.99;44.42
11808;BME280;5961;42.640;23.380;2023-07-20T11:08:06;93628.69;;;28.66;43.01
11808;BME280;5961;42.640;23.380;2023-07-20T11:10:35;93672.41;;;29.03;42.94
11808;BME280;5961;42.640;23.380;2023-07-20T11:13:20;93674.22;;;29.15;42.08
11808;BME280;5961;42.640;23.380;2023-07-20T11:16:02;93669.34;;;29.28;42.29
11808;BME280;5961;42.640;23.380;2023-07-20T11:18:29;93665.22;;;29.32;43.04
11808;BME280;5961;42.640;23.380;2023-07-20T11:20:57;93678.56;;;29.49;42.58
11808;BME280;5961;42.640;23.380;2023-07-20T11:23:24;93687.81;;;29.60;42.49
11808;BME280;5961;42.640;23.380;2023-07-20T11:25:51;93686.38;;;29.74;42.09
11808;BME280;5961;42.640;23.380;2023-07-20T11:28:19;93675.53;;;29.88;42.74
11808;BME280;5961;42.640;23.380;2023-07-20T11:30:51;93673.31;;;30.02;42.74
11808;BME280;5961;42.640;23.380;2023-07-20T11:33:19;93671.41;;;30.17;42.54
11808;BME280;5961;42.640;23.380;2023-07-20T11:35:46;93675.84;;;30.38;41.78
11808;BME280;5961;42.640;23.380;2023-07-20T11:38:13;93659.00;;;30.54;42.10
11808;BME280;5961;42.640;23.380;2023-07-20T11:40:42;93656.56;;;30.71;41.91
11808;BME280;5961;42.640;23.380;2023-07-20T11:43:10;93662.69;;;30.89;41.06
11808;BME280;5961;42.640;23.380;2023-07-20T11:45:39;93646.78;;;30.93;40.76
11808;BME280;5961;42.640;23.380;2023-07-20T11:48:06;93662.16;;;31.15;39.68
11808;BME280;5961;42.640;23.380;2023-07-20T11:50:38;93668.22;;;31.19;39.69
11808;BME280;5961;42.640;23.380;2023-07-20T11:53:05;93647.69;;;31.29;39.45
11808;BME280;5961;42.640;23.380;2023-07-20T11:55:32;93641.72;;;31.30;39.21
11808;BME280;5961;42.640;23.380;2023-07-20T11:58:03;93634.59;;;31.38;38.90
11808;BME280;5961;42.640;23.380;2023-07-20T12:00:30;93636.22;;;31.45;39.53
11808;BME280;5961;42.640;23.380;2023-07-20T12:02:59;93632.53;;;31.48;39.45
11808;BME280;5961;42.640;23.380;2023-07-20T12:05:25;93633.19;;;31.58;40.45
11808;BME280;5961;42.640;23.380;2023-07-20T12:07:52;93629.97;;;31.59;40.23
11808;BME280;5961;42.640;23.380;2023-07-20T12:10:24;93626.63;;;31.70;40.19
11808;BME280;5961;42.640;23.380;2023-07-20T12:12:51;93596.91;;;31.53;39.30
11808;BME280;5961;42.640;23.380;2023-07-20T12:15:21;93629.34;;;31.84;38.40
11808;BME280;5961;42.640;23.380;2023-07-20T12:17:50;93622.47;;;31.94;38.36
11808;BME280;5961;42.640;23.380;2023-07-20T12:20:30;93586.72;;;31.74;37.35
11808;BME280;5961;42.640;23.380;2023-07-20T12:22:58;93626.25;;;32.12;36.56
11808;BME280;5961;42.640;23.380;2023-07-20T12:25:37;93626.88;;;32.21;36.76
11808;BME280;5961;42.640;23.380;2023-07-20T12:28:05;93618.97;;;32.29;37.26
11808;BME280;5961;42.640;23.380;2023-07-20T12:30:31;93608.66;;;32.44;36.92
11808;BME280;5961;42.640;23.380;2023-07-20T12:32:58;93618.47;;;32.50;36.02
11808;BME280;5961;42.640;23.380;2023-07-20T12:35:25;93630.66;;;32.64;34.72
11808;BME280;5961;42.640;23.380;2023-07-20T12:37:53;93610.94;;;32.66;32.97
11808;BME280;5961;42.640;23.380;2023-07-20T12:40:20;93609.75;;;32.72;32.05
11808;BME280;5961;42.640;23.380;2023-07-20T12:42:47;93608.84;;;32.81;32.65
11808;BME280;5961;42.640;23.380;2023-07-20T12:45:14;93608.63;;;32.84;32.07
11808;BME280;5961;42.640;23.380;2023-07-20T12:47:40;93612.41;;;32.87;32.25
11808;BME280;5961;42.640;23.380;2023-07-20T12:50:08;93624.63;;;32.86;32.38
11808;BME280;5961;42.640;23.380;2023-07-20T12:52:36;93596.25;;;32.74;31.33
11808;BME280;5961;42.640;23.380;2023-07-20T12:55:06;93607.19;;;32.94;30.33
11808;BME280;5961;42.640;23.380;2023-07-20T12:57:33;93623.19;;;32.90;28.48
11808;BME280;5961;42.640;23.380;2023-07-20T13:00:00;93597.72;;;32.95;28.15
11808;BME280;5961;42.640;23.380;2023-07-20T13:02:26;93620.28;;;32.99;28.34
11808;BME280;5961;42.640;23.380;2023-07-20T13:04:53;93606.72;;;32.96;28.14
11808;BME280;5961;42.640;23.380;2023-07-20T13:07:29;93616.28;;;33.00;29.08